createdAt,value
2022-11-03T00:01:43.743Z,74.40
2022-11-03T00:07:37.110Z,71.50
2022-11-03T00:13:30.424Z,80.00
2022-11-03T00:19:25.035Z,78.00
2022-11-03T00:25:18.506Z,67.40
2022-11-03T00:31:14.274Z,59.30
2022-11-03T00:37:08.454Z,48.60
2022-11-03T00:43:02.087Z,57.90
2022-11-03T00:48:55.430Z,57.20
2022-11-03T00:54:54.256Z,49.50
2022-11-03T01:00:48.919Z,49.10
2022-11-03T01:06:53.635Z,41.10
2022-11-03T01:12:47.816Z,46.40
2022-11-03T01:18:41.125Z,44.20
2022-11-03T01:24:35.567Z,41.10
2022-11-03T01:30:30.246Z,49.10
2022-11-03T01:36:23.180Z,46.30
2022-11-03T01:42:16.118Z,48.10
2022-11-03T01:48:12.245Z,47.50
2022-11-03T01:54:09.993Z,46.00
2022-11-03T02:00:05.272Z,50.70
2022-11-03T02:06:08.409Z,55.00
2022-11-03T02:12:08.299Z,65.90
2022-11-03T02:18:03.272Z,71.10
2022-11-03T02:24:04.692Z,70.70
2022-11-03T02:29:59.902Z,64.20
2022-11-03T02:35:59.140Z,68.50
2022-11-03T02:41:55.148Z,76.50
2022-11-03T02:47:51.377Z,67.30
2022-11-03T02:53:49.682Z,67.70
2022-11-03T02:59:47.816Z,65.00
2022-11-03T03:05:43.916Z,58.80
2022-11-03T03:11:39.884Z,65.50
2022-11-03T03:17:38.870Z,60.50
2022-11-03T03:23:37.628Z,59.20
2022-11-03T03:29:36.919Z,59.00
2022-11-03T03:35:32.127Z,59.00
2022-11-03T03:41:29.870Z,59.00
2022-11-03T03:47:28.275Z,55.20
2022-11-03T03:53:21.968Z,62.10
2022-11-03T03:59:16.935Z,59.10
2022-11-03T04:05:10.405Z,60.50
2022-11-03T04:11:21.359Z,64.80
2022-11-03T04:17:38.606Z,65.20
2022-11-03T04:23:31.981Z,65.50
2022-11-03T04:29:26.252Z,69.20
2022-11-03T04:35:23.096Z,66.10
2022-11-03T04:41:18.678Z,75.30
2022-11-03T04:47:13.955Z,79.40
2022-11-03T04:53:14.835Z,93.50
2022-11-03T04:59:13.160Z,96.70
2022-11-03T05:05:16.751Z,96.90
2022-11-03T05:11:23.634Z,98.10
2022-11-03T05:17:24.165Z,99.90
2022-11-03T05:23:17.856Z,98.50
2022-11-03T05:29:16.841Z,99.90
2022-11-03T05:35:20.572Z,99.90
2022-11-03T05:41:17.905Z,99.90
2022-11-03T05:47:19.901Z,99.90
2022-11-03T05:53:27.133Z,99.90
2022-11-03T05:59:26.260Z,99.90
2022-11-03T06:05:24.174Z,99.90
2022-11-03T06:11:24.195Z,99.90
2022-11-03T06:17:24.020Z,99.90
2022-11-03T06:23:21.215Z,99.90
2022-11-03T06:29:17.275Z,99.90
2022-11-03T06:35:13.373Z,99.90
2022-11-03T06:41:16.917Z,99.90
2022-11-03T06:47:23.291Z,99.90
2022-11-03T06:53:22.253Z,99.90
2022-11-03T06:59:18.175Z,99.90
2022-11-03T07:05:23.844Z,99.90
2022-11-03T07:11:19.632Z,99.90
2022-11-03T07:17:18.085Z,99.90
2022-11-03T07:23:17.501Z,99.90
2022-11-03T07:29:16.825Z,99.90
2022-11-03T07:35:41.680Z,99.90
2022-11-03T07:41:43.666Z,99.90
2022-11-03T07:47:37.045Z,99.90
2022-11-03T07:53:39.108Z,99.90
2022-11-03T07:59:36.412Z,99.90
2022-11-03T08:05:29.765Z,99.90
2022-11-03T08:11:27.901Z,99.90
2022-11-03T08:17:22.831Z,99.90
2022-11-03T08:23:25.633Z,99.90
2022-11-03T08:29:21.776Z,99.90
2022-11-03T08:35:15.262Z,99.90
2022-11-03T08:41:08.181Z,99.90
2022-11-03T08:47:03.041Z,99.90
2022-11-03T08:52:56.326Z,99.90
2022-11-03T08:58:49.872Z,99.90
2022-11-03T09:04:44.523Z,99.90
2022-11-03T09:10:42.201Z,99.90
2022-11-03T09:16:35.440Z,99.90
2022-11-03T09:22:30.083Z,99.90
2022-11-03T09:28:23.605Z,99.90
2022-11-03T09:34:17.040Z,99.90
2022-11-03T09:40:15.093Z,99.90
2022-11-03T09:46:08.432Z,99.90
2022-11-03T09:52:02.359Z,99.90
2022-11-03T09:58:01.021Z,99.90
2022-11-03T10:03:58.942Z,99.90
2022-11-03T10:09:53.842Z,99.90
2022-11-03T10:15:48.507Z,99.90
2022-11-03T10:21:43.871Z,99.90
2022-11-03T10:27:37.159Z,99.90
2022-11-03T10:33:34.515Z,99.90
2022-11-03T10:39:32.349Z,99.90
2022-11-03T10:45:25.834Z,99.90
2022-11-03T10:51:20.441Z,99.90
2022-11-03T10:57:13.876Z,99.90
2022-11-03T11:03:08.377Z,99.90
2022-11-03T11:09:05.603Z,99.90
2022-11-03T11:15:00.611Z,99.90
2022-11-03T11:20:53.917Z,99.90
2022-11-03T11:26:51.163Z,99.90
2022-11-03T11:33:01.553Z,99.90
2022-11-03T11:38:59.435Z,99.90
2022-11-03T11:44:58.231Z,99.90
2022-11-03T11:50:51.868Z,99.90
2022-11-03T11:56:46.620Z,99.90
2022-11-03T12:02:41.329Z,96.50
2022-11-03T12:08:35.579Z,94.80
2022-11-03T12:14:35.922Z,95.50
2022-11-03T12:20:48.590Z,95.50
2022-11-03T12:26:42.421Z,94.10
2022-11-03T12:32:35.929Z,95.50
2022-11-03T12:38:30.614Z,95.80
2022-11-03T12:44:24.046Z,96.70
2022-11-03T12:50:17.567Z,98.50
2022-11-03T12:56:12.667Z,97.10
2022-11-03T13:02:06.289Z,99.00
2022-11-03T13:07:59.593Z,99.20
2022-11-03T13:13:54.508Z,99.90
2022-11-03T13:19:49.356Z,97.60
2022-11-03T13:25:47.431Z,99.30
2022-11-03T13:31:42.309Z,99.90
2022-11-03T13:37:35.675Z,99.90
2022-11-03T13:43:29.451Z,99.90
2022-11-03T14:01:37.842Z,99.90
2022-11-03T14:07:33.013Z,99.90
2022-11-03T14:13:26.348Z,99.90
2022-11-03T14:19:19.720Z,99.90
2022-11-03T14:25:14.477Z,99.90
2022-11-03T14:31:07.649Z,99.90
2022-11-03T14:37:01.678Z,99.90
2022-11-03T14:42:56.606Z,99.90
2022-11-03T14:48:49.990Z,99.90
2022-11-03T14:54:43.522Z,99.90
2022-11-03T15:00:38.507Z,99.90
2022-11-03T15:06:32.361Z,99.90
2022-11-03T15:12:33.067Z,99.90
2022-11-03T15:18:27.864Z,99.90
2022-11-03T15:30:34.492Z,99.90
2022-11-03T15:36:29.261Z,99.90
2022-11-03T15:42:22.834Z,99.90
2022-11-03T15:48:15.896Z,99.90
2022-11-03T15:54:10.552Z,99.90
2022-11-03T16:00:06.825Z,99.90
2022-11-03T16:06:00.294Z,99.90
2022-11-03T16:11:55.044Z,99.90
2022-11-03T16:17:49.069Z,99.90
2022-11-03T16:23:42.358Z,99.90
2022-11-03T16:29:37.169Z,99.90
2022-11-03T16:35:30.748Z,99.90
2022-11-03T16:41:24.204Z,99.90
2022-11-03T16:47:18.880Z,99.90
2022-11-03T16:53:12.435Z,99.90
2022-11-03T16:59:05.805Z,99.90
2022-11-03T17:05:00.504Z,99.90
2022-11-03T17:10:53.847Z,99.90
2022-11-03T17:16:49.467Z,99.90
2022-11-03T17:22:44.256Z,99.90
2022-11-03T17:28:37.644Z,99.90
2022-11-03T17:34:31.382Z,99.90
2022-11-03T17:40:27.450Z,99.90
2022-11-03T17:46:20.936Z,99.90
2022-11-03T17:52:19.058Z,99.90
2022-11-03T17:58:16.749Z,99.90
2022-11-03T18:10:08.654Z,99.90
2022-11-03T18:16:07.466Z,99.90
2022-11-03T18:22:00.801Z,99.90
2022-11-03T18:27:54.102Z,99.90
2022-11-03T18:33:49.009Z,99.90
2022-11-03T18:39:42.520Z,99.90
2022-11-03T18:45:35.924Z,99.90
2022-11-03T18:51:30.682Z,99.90
2022-11-03T18:57:25.702Z,99.90
2022-11-03T19:03:23.210Z,99.90
2022-11-03T19:09:20.839Z,99.90
2022-11-03T19:15:19.982Z,99.90
2022-11-03T19:21:15.388Z,99.90
2022-11-03T19:27:15.325Z,99.90
2022-11-03T19:33:14.231Z,99.90
2022-11-03T19:39:13.609Z,99.90
2022-11-03T19:45:11.961Z,99.90
2022-11-03T19:51:07.507Z,99.90
2022-11-03T19:57:00.877Z,99.90
2022-11-03T20:02:55.501Z,99.90
2022-11-03T20:08:48.860Z,99.90
2022-11-03T20:14:42.260Z,99.90
2022-11-03T20:20:38.048Z,99.90
2022-11-03T20:26:31.790Z,99.90
2022-11-03T20:32:25.123Z,99.90
2022-11-03T20:38:21.057Z,99.90
2022-11-03T20:44:14.817Z,99.90
2022-11-03T20:50:09.976Z,99.90
2022-11-03T20:56:04.666Z,99.90
2022-11-03T21:01:58.693Z,99.90
2022-11-03T21:07:52.678Z,99.90
2022-11-03T21:13:47.420Z,99.90
2022-11-03T21:19:58.448Z,99.90
2022-11-03T21:25:52.439Z,99.90
2022-11-03T21:31:47.608Z,99.90
2022-11-03T21:37:40.898Z,99.90
2022-11-03T21:43:50.834Z,99.90
2022-11-03T21:49:45.148Z,99.90
2022-11-03T21:55:38.588Z,99.90
2022-11-03T22:01:32.101Z,99.90
2022-11-03T22:07:26.867Z,99.90
2022-11-03T22:13:20.132Z,99.90
2022-11-03T22:19:33.415Z,99.90
2022-11-03T22:25:56.847Z,99.90
2022-11-03T22:31:50.139Z,99.90
2022-11-03T22:37:43.547Z,99.90
2022-11-03T22:43:56.349Z,99.90
2022-11-03T22:49:49.644Z,99.90
2022-11-03T22:55:43.431Z,99.90
2022-11-03T23:01:38.161Z,99.90
2022-11-03T23:07:35.846Z,99.90
2022-11-03T23:13:31.765Z,99.90
2022-11-03T23:19:44.099Z,99.90
2022-11-03T23:25:37.393Z,99.90
2022-11-03T23:31:30.698Z,99.90
2022-11-03T23:37:25.309Z,99.90
2022-11-03T23:43:18.569Z,99.90
2022-11-03T23:49:12.229Z,99.90
2022-11-03T23:55:07.361Z,99.90
